createdAt,value
2022-09-11T00:02:21.704Z,100308.38
2022-09-11T00:05:23.350Z,100307.38
2022-09-11T00:08:25.025Z,100311.81
2022-09-11T00:11:29.961Z,100307.09
2022-09-11T00:14:31.727Z,100311.94
2022-09-11T00:17:33.408Z,100320.63
2022-09-11T00:20:36.979Z,100315.53
2022-09-11T00:23:38.851Z,100318.66
2022-09-11T00:26:42.655Z,100314.59
2022-09-11T00:29:44.384Z,100319.44
2022-09-11T00:32:46.101Z,100318.88
2022-09-11T00:35:58.292Z,100315.66
2022-09-11T00:39:00.043Z,100319.34
2022-09-11T00:42:05.217Z,100320.81
2022-09-11T00:45:08.979Z,100327.84
2022-09-11T00:48:14.432Z,100327.63
2022-09-11T00:51:20.225Z,100324.13
2022-09-11T00:54:26.600Z,100322.69
2022-09-11T00:57:33.834Z,100316.31
2022-09-11T01:00:39.328Z,100324.38
2022-09-11T01:03:42.288Z,100324.59
2022-09-11T01:06:46.561Z,100327.84
2022-09-11T01:09:48.712Z,100331.84
2022-09-11T01:13:01.066Z,100332.63
2022-09-11T01:16:12.959Z,100327.50
2022-09-11T01:19:30.302Z,100326.25
2022-09-11T01:22:51.666Z,100324.19
2022-09-11T01:26:07.160Z,100344.00
2022-09-11T01:29:17.820Z,100337.31
2022-09-11T01:32:23.939Z,100338.91
2022-09-11T01:35:37.093Z,100352.06
2022-09-11T01:38:46.645Z,100351.97
2022-09-11T01:41:53.169Z,100344.22
2022-09-11T01:44:57.603Z,100349.41
2022-09-11T01:48:00.495Z,100346.28
2022-09-11T01:51:04.077Z,100356.00
2022-09-11T01:54:11.077Z,100354.50
2022-09-11T01:57:24.813Z,100357.97
2022-09-11T02:00:31.975Z,100350.47
2022-09-11T02:03:38.169Z,100361.28
2022-09-11T02:06:48.845Z,100353.72
2022-09-11T02:09:54.881Z,100354.25
2022-09-11T02:13:07.694Z,100353.22
2022-09-11T02:16:19.872Z,100354.72
2022-09-11T02:19:26.266Z,100356.00
2022-09-11T02:22:28.142Z,100352.78
2022-09-11T02:25:29.826Z,100356.50
2022-09-11T02:28:31.801Z,100350.63
2022-09-11T02:31:35.464Z,100352.34
2022-09-11T02:34:40.346Z,100368.56
2022-09-11T02:37:54.914Z,100370.53
2022-09-11T02:41:08.614Z,100377.91
2022-09-11T02:44:20.365Z,100375.72
2022-09-11T02:47:38.818Z,100379.38
2022-09-11T02:50:50.364Z,100386.91
2022-09-11T02:54:02.183Z,100386.63
2022-09-11T02:57:11.516Z,100394.00
2022-09-11T03:00:13.503Z,100395.97
2022-09-11T03:03:17.219Z,100393.47
2022-09-11T03:06:21.495Z,100398.19
2022-09-11T03:09:23.203Z,100402.78
2022-09-11T03:12:29.063Z,100403.13
2022-09-11T03:15:30.994Z,100396.56
2022-09-11T03:18:34.158Z,100403.28
2022-09-11T03:21:36.575Z,100396.25
2022-09-11T03:24:39.638Z,100404.41
2022-09-11T03:27:42.082Z,100402.81
2022-09-11T03:30:49.122Z,100403.91
2022-09-11T03:33:52.320Z,100403.38
2022-09-11T03:36:54.092Z,100412.16
2022-09-11T03:39:55.766Z,100401.53
2022-09-11T03:42:57.423Z,100414.00
2022-09-11T03:46:00.473Z,100427.34
2022-09-11T03:49:03.522Z,100420.47
2022-09-11T03:52:05.842Z,100428.03
2022-09-11T03:55:08.150Z,100428.41
2022-09-11T03:58:10.011Z,100439.34
2022-09-11T04:01:18.986Z,100439.19
2022-09-11T04:04:22.697Z,100439.56
2022-09-11T04:07:24.476Z,100440.28
2022-09-11T04:10:26.233Z,100443.25
2022-09-11T04:13:28.804Z,100446.00
2022-09-11T04:16:32.833Z,100446.16
2022-09-11T04:19:36.456Z,100451.31
2022-09-11T04:22:39.235Z,100451.53
2022-09-11T04:25:40.956Z,100452.16
2022-09-11T04:28:43.238Z,100453.63
2022-09-11T04:31:46.152Z,100454.09
2022-09-11T04:34:51.102Z,100462.06
2022-09-11T04:37:52.693Z,100458.34
2022-09-11T04:40:55.289Z,100461.81
2022-09-11T04:44:04.090Z,100461.34
2022-09-11T04:47:08.942Z,100459.47
2022-09-11T04:50:12.779Z,100466.41
2022-09-11T04:53:15.980Z,100460.91
2022-09-11T04:56:21.179Z,100462.84
2022-09-11T04:59:23.776Z,100468.03
2022-09-11T05:02:33.536Z,100468.63
2022-09-11T05:05:36.567Z,100475.06
2022-09-11T05:08:38.245Z,100475.75
2022-09-11T05:11:42.100Z,100474.94
2022-09-11T05:14:44.909Z,100479.31
2022-09-11T05:17:48.312Z,100490.50
2022-09-11T05:21:00.544Z,100504.28
2022-09-11T05:24:03.384Z,100496.78
2022-09-11T05:27:07.384Z,100504.53
2022-09-11T05:30:10.471Z,100509.81
2022-09-11T05:33:13.695Z,100515.25
2022-09-11T05:36:16.834Z,100529.75
2022-09-11T05:39:19.191Z,100531.63
2022-09-11T05:42:22.067Z,100540.28
2022-09-11T05:45:27.618Z,100540.41
2022-09-11T05:48:30.253Z,100550.09
2022-09-11T05:51:37.580Z,100539.84
2022-09-11T05:54:40.529Z,100548.22
2022-09-11T05:57:42.292Z,100550.31
2022-09-11T06:00:46.602Z,100555.94
2022-09-11T06:03:49.301Z,100560.56
2022-09-11T06:06:54.420Z,100564.84
2022-09-11T06:10:00.998Z,100555.25
2022-09-11T06:13:05.762Z,100565.41
2022-09-11T06:16:13.405Z,100569.22
2022-09-11T06:19:17.610Z,100573.38
2022-09-11T06:22:21.919Z,100571.31
2022-09-11T06:25:25.699Z,100578.78
2022-09-11T06:28:27.316Z,100580.84
2022-09-11T06:31:29.878Z,100581.44
2022-09-11T06:34:31.837Z,100579.59
2022-09-11T06:37:38.763Z,100577.28
2022-09-11T06:40:42.690Z,100575.56
2022-09-11T06:43:45.017Z,100574.66
2022-09-11T06:46:47.731Z,100578.19
2022-09-11T06:49:49.408Z,100588.59
2022-09-11T06:53:07.317Z,100576.94
2022-09-11T06:56:13.307Z,100579.34
2022-09-11T06:59:16.596Z,100571.28
2022-09-11T07:02:18.259Z,100574.63
2022-09-11T07:05:25.716Z,100585.47
2022-09-11T07:08:29.737Z,100584.09
2022-09-11T07:11:33.396Z,100579.72
2022-09-11T07:14:35.697Z,100573.56
2022-09-11T07:17:46.364Z,100576.81
2022-09-11T07:20:48.944Z,100575.53
2022-09-11T07:23:54.838Z,100589.13
2022-09-11T07:26:56.894Z,100589.94
2022-09-11T07:30:07.144Z,100588.78
2022-09-11T07:33:12.578Z,100593.19
2022-09-11T07:36:18.630Z,100594.91
2022-09-11T07:39:25.646Z,100600.84
2022-09-11T07:42:41.129Z,100598.66
2022-09-11T07:45:42.896Z,100606.31
2022-09-11T07:48:45.624Z,100610.88
2022-09-11T07:51:47.407Z,100616.00
2022-09-11T07:54:56.462Z,100610.34
2022-09-11T07:58:02.228Z,100608.97
2022-09-11T08:01:05.349Z,100609.00
2022-09-11T08:04:11.042Z,100600.88
2022-09-11T08:07:12.873Z,100610.09
2022-09-11T08:10:27.141Z,100607.31
2022-09-11T08:13:30.132Z,100608.41
2022-09-11T08:16:32.676Z,100606.72
2022-09-11T08:19:35.500Z,100595.28
2022-09-11T08:22:37.671Z,100606.28
2022-09-11T08:25:42.383Z,100617.47
2022-09-11T08:28:45.237Z,100607.59
2022-09-11T08:31:46.980Z,100609.06
2022-09-11T08:34:49.378Z,100611.13
2022-09-11T08:37:54.901Z,100618.56
2022-09-11T08:41:09.195Z,100613.72
2022-09-11T08:44:17.318Z,100615.63
2022-09-11T08:47:24.126Z,100618.59
2022-09-11T08:50:31.541Z,100624.97
2022-09-11T08:53:34.266Z,100619.03
2022-09-11T08:56:38.426Z,100620.66
2022-09-11T08:59:59.402Z,100616.16
2022-09-11T09:03:34.965Z,100623.84
2022-09-11T09:06:51.778Z,100620.69
2022-09-11T09:10:03.261Z,100621.69
2022-09-11T09:13:25.722Z,100622.03
2022-09-11T09:16:42.383Z,100616.00
2022-09-11T09:19:52.542Z,100611.78
2022-09-11T09:22:57.750Z,100618.13
2022-09-11T09:26:01.537Z,100618.03
2022-09-11T09:29:14.586Z,100619.16
2022-09-11T09:32:24.028Z,100623.88
2022-09-11T09:35:30.499Z,100627.88
2022-09-11T09:38:33.043Z,100631.84
2022-09-11T09:42:01.138Z,100619.94
2022-09-11T09:45:19.086Z,100623.91
2022-09-11T09:48:20.937Z,100632.63
2022-09-11T09:51:22.744Z,100629.19
2022-09-11T09:54:26.607Z,100626.72
2022-09-11T09:57:31.998Z,100630.16
2022-09-11T10:00:37.639Z,100640.84
2022-09-11T10:03:39.355Z,100654.03
2022-09-11T10:06:41.366Z,100662.50
2022-09-11T10:09:46.819Z,100668.06
2022-09-11T10:12:48.817Z,100664.28
2022-09-11T10:15:53.801Z,100669.69
2022-09-11T10:18:56.274Z,100668.16
2022-09-11T10:22:21.989Z,100664.22
2022-09-11T10:25:29.785Z,100653.44
2022-09-11T10:28:33.359Z,100664.72
2022-09-11T10:31:40.162Z,100651.94
2022-09-11T10:34:42.293Z,100657.09
2022-09-11T10:37:44.160Z,100658.25
2022-09-11T10:40:56.303Z,100655.84
2022-09-11T10:44:01.749Z,100658.44
2022-09-11T10:47:13.623Z,100651.97
2022-09-11T10:50:23.024Z,100656.31
2022-09-11T10:53:25.358Z,100660.59
2022-09-11T10:56:27.962Z,100657.44
2022-09-11T10:59:37.645Z,100652.63
2022-09-11T11:02:44.077Z,100645.16
2022-09-11T11:05:56.104Z,100648.31
2022-09-11T11:09:27.730Z,100650.97
2022-09-11T11:12:47.618Z,100639.63
2022-09-11T11:16:02.971Z,100651.41
2022-09-11T11:19:26.547Z,100643.19
2022-09-11T11:22:48.735Z,100640.28
2022-09-11T11:26:02.929Z,100633.59
2022-09-11T11:29:20.425Z,100628.16
2022-09-11T11:32:41.523Z,100627.22
2022-09-11T11:35:54.151Z,100626.72
2022-09-11T11:39:02.022Z,100635.03
2022-09-11T11:42:12.609Z,100642.41
2022-09-11T11:45:23.280Z,100628.09
2022-09-11T11:48:29.252Z,100622.88
2022-09-11T11:51:34.818Z,100610.63
2022-09-11T11:54:42.310Z,100619.28
2022-09-11T11:57:54.113Z,100621.31
2022-09-11T12:01:00.140Z,100620.38
2022-09-11T12:04:09.592Z,100629.00
2022-09-11T12:07:17.800Z,100617.31
2022-09-11T12:10:27.507Z,100614.66
2022-09-11T12:13:32.510Z,100618.63
2022-09-11T12:16:36.428Z,100623.22
2022-09-11T12:19:58.379Z,100621.19
2022-09-11T12:23:01.819Z,100609.38
2022-09-11T12:26:18.070Z,100612.38
2022-09-11T12:29:56.405Z,100608.03
2022-09-11T12:33:01.120Z,100605.16
2022-09-11T12:36:07.720Z,100603.59
2022-09-11T12:39:24.785Z,100609.28
2022-09-11T12:42:45.973Z,100603.44
2022-09-11T12:45:48.260Z,100606.41
2022-09-11T12:49:18.079Z,100604.53
2022-09-11T12:52:30.428Z,100599.38
2022-09-11T12:55:39.686Z,100596.41
2022-09-11T12:58:44.899Z,100592.25
2022-09-11T13:01:46.887Z,100588.84
2022-09-11T13:04:48.893Z,100584.09
2022-09-11T13:07:56.724Z,100586.59
2022-09-11T13:11:32.122Z,100585.53
2022-09-11T13:14:51.671Z,100591.16
2022-09-11T13:17:53.769Z,100582.28
2022-09-11T13:21:12.306Z,100590.41
2022-09-11T13:24:25.237Z,100581.00
2022-09-11T13:27:28.149Z,100575.25
2022-09-11T13:30:31.172Z,100577.72
2022-09-11T13:33:32.873Z,100580.72
2022-09-11T13:36:35.912Z,100574.31
2022-09-11T13:39:41.899Z,100570.19
2022-09-11T13:42:43.657Z,100559.75
2022-09-11T13:45:47.884Z,100564.78
2022-09-11T13:48:52.081Z,100566.84
2022-09-11T13:51:53.750Z,100569.06
2022-09-11T13:54:58.736Z,100561.59
2022-09-11T13:58:02.398Z,100559.00
2022-09-11T14:01:11.437Z,100561.84
2022-09-11T14:04:13.086Z,100553.13
2022-09-11T14:07:21.274Z,100550.69
2022-09-11T14:10:27.279Z,100554.38
2022-09-11T14:13:33.493Z,100545.09
2022-09-11T14:16:45.187Z,100549.69
2022-09-11T14:19:48.100Z,100545.59
2022-09-11T14:22:53.965Z,100538.22
2022-09-11T14:26:11.209Z,100538.88
2022-09-11T14:29:23.542Z,100532.06
2022-09-11T14:32:36.740Z,100531.28
2022-09-11T14:35:38.639Z,100527.78
2022-09-11T14:38:40.588Z,100529.88
2022-09-11T14:41:44.007Z,100524.56
2022-09-11T14:44:45.659Z,100526.94
2022-09-11T14:47:48.870Z,100527.66
2022-09-11T14:50:50.694Z,100516.56
2022-09-11T14:53:52.430Z,100515.78
2022-09-11T14:56:54.163Z,100513.19
2022-09-11T14:59:55.890Z,100505.78
2022-09-11T15:03:00.257Z,100511.97
2022-09-11T15:06:01.966Z,100509.16
2022-09-11T15:09:03.766Z,100508.28
2022-09-11T15:12:06.045Z,100506.19
2022-09-11T15:15:08.923Z,100505.19
2022-09-11T15:18:12.248Z,100501.19
2022-09-11T15:21:13.937Z,100499.06
2022-09-11T15:24:15.585Z,100497.28
2022-09-11T15:27:18.989Z,100493.31
2022-09-11T15:30:21.278Z,100487.34
2022-09-11T15:33:24.370Z,100490.75
2022-09-11T15:36:26.375Z,100483.66
2022-09-11T15:39:28.337Z,100478.78
2022-09-11T15:42:30.908Z,100479.94
2022-09-11T15:45:32.992Z,100485.41
2022-09-11T15:48:36.180Z,100483.25
2022-09-11T15:51:38.830Z,100484.63
2022-09-11T15:54:41.039Z,100477.66
2022-09-11T15:57:42.651Z,100480.34
2022-09-11T16:00:46.032Z,100475.00
2022-09-11T16:03:51.867Z,100471.22
2022-09-11T16:06:54.499Z,100475.06
2022-09-11T16:09:56.077Z,100469.50
2022-09-11T16:12:58.990Z,100471.38
2022-09-11T16:16:02.635Z,100472.88
2022-09-11T16:19:05.747Z,100475.81
2022-09-11T16:22:07.480Z,100477.47
2022-09-11T16:25:09.367Z,100471.72
2022-09-11T16:28:10.953Z,100468.81
2022-09-11T16:31:13.740Z,100465.69
2022-09-11T16:34:17.913Z,100471.75
2022-09-11T16:37:19.745Z,100467.16
2022-09-11T16:40:21.537Z,100469.69
2022-09-11T16:43:23.182Z,100464.59
2022-09-11T16:46:26.924Z,100465.19
2022-09-11T16:49:37.203Z,100469.16
2022-09-11T16:52:46.499Z,100461.19
2022-09-11T16:55:48.499Z,100462.94
2022-09-11T16:58:50.621Z,100465.41
2022-09-11T17:01:52.424Z,100466.28
2022-09-11T17:04:55.445Z,100465.59
2022-09-11T17:07:57.378Z,100461.28
2022-09-11T17:11:02.252Z,100459.41
2022-09-11T17:14:04.221Z,100468.13
2022-09-11T17:17:05.856Z,100466.59
2022-09-11T17:20:11.632Z,100472.09
2022-09-11T17:23:13.963Z,100471.53
2022-09-11T17:26:16.831Z,100478.28
2022-09-11T17:29:19.597Z,100470.84
2022-09-11T17:32:29.795Z,100470.19
2022-09-11T17:35:32.813Z,100473.13
2022-09-11T17:38:34.774Z,100464.72
2022-09-11T17:41:36.501Z,100469.88
2022-09-11T17:44:38.224Z,100468.97
2022-09-11T17:47:40.932Z,100486.47
2022-09-11T17:50:43.937Z,100489.50
2022-09-11T17:53:47.828Z,100488.66
2022-09-11T17:56:50.493Z,100491.41
2022-09-11T17:59:52.653Z,100483.16
2022-09-11T18:02:57.095Z,100492.00
2022-09-11T18:06:01.815Z,100491.91
2022-09-11T18:09:11.838Z,100489.44
2022-09-11T18:12:14.553Z,100500.59
2022-09-11T18:15:16.320Z,100495.78
2022-09-11T18:18:18.007Z,100488.72
2022-09-11T18:21:21.125Z,100491.56
2022-09-11T18:24:22.817Z,100498.38
2022-09-11T18:27:24.628Z,100492.75
2022-09-11T18:30:26.385Z,100503.03
2022-09-11T18:33:28.071Z,100499.78
2022-09-11T18:36:31.531Z,100501.75
2022-09-11T18:39:34.071Z,100502.81
2022-09-11T18:42:35.735Z,100502.69
2022-09-11T18:45:37.453Z,100497.94
2022-09-11T18:48:42.450Z,100496.41
2022-09-11T18:51:45.503Z,100502.50
2022-09-11T18:54:47.163Z,100504.88
2022-09-11T18:57:49.392Z,100512.34
2022-09-11T19:00:51.057Z,100512.09
2022-09-11T19:03:53.410Z,100514.78
2022-09-11T19:06:56.462Z,100507.78
2022-09-11T19:10:00.250Z,100509.88
2022-09-11T19:13:02.418Z,100514.19
2022-09-11T19:16:05.264Z,100521.38
2022-09-11T19:19:07.551Z,100523.47
2022-09-11T19:22:11.248Z,100520.97
2022-09-11T19:25:13.786Z,100518.53
2022-09-11T19:28:16.011Z,100520.41
2022-09-11T19:31:24.794Z,100525.63
2022-09-11T19:34:26.676Z,100515.91
2022-09-11T19:37:29.735Z,100519.03
2022-09-11T19:40:31.679Z,100515.25
2022-09-11T19:43:35.147Z,100519.75
2022-09-11T19:46:38.135Z,100519.06
2022-09-11T19:49:39.870Z,100519.97
2022-09-11T19:52:42.943Z,100519.19
2022-09-11T19:55:44.806Z,100521.16
2022-09-11T19:58:46.475Z,100524.38
2022-09-11T20:01:48.237Z,100521.63
2022-09-11T20:04:49.971Z,100523.69
2022-09-11T20:07:53.995Z,100521.13
2022-09-11T20:10:55.781Z,100528.66
2022-09-11T20:14:00.618Z,100527.28
2022-09-11T20:17:08.198Z,100524.94
2022-09-11T20:20:10.120Z,100518.38
2022-09-11T20:23:13.145Z,100522.19
2022-09-11T20:26:17.559Z,100523.09
2022-09-11T20:29:19.437Z,100527.28
2022-09-11T20:32:21.212Z,100528.63
2022-09-11T20:35:23.042Z,100522.88
2022-09-11T20:38:26.109Z,100527.47
2022-09-11T20:41:30.053Z,100522.75
2022-09-11T20:44:36.231Z,100517.31
2022-09-11T20:47:38.719Z,100525.53
2022-09-11T20:50:40.380Z,100520.56
2022-09-11T20:53:45.629Z,100521.13
2022-09-11T20:56:47.442Z,100518.81
2022-09-11T20:59:49.883Z,100514.44
2022-09-11T21:02:51.525Z,100514.31
2022-09-11T21:05:54.519Z,100516.22
2022-09-11T21:08:59.396Z,100509.66
2022-09-11T21:12:01.048Z,100510.47
2022-09-11T21:15:02.656Z,100509.78
2022-09-11T21:18:04.501Z,100501.13
2022-09-11T21:21:07.001Z,100500.56
2022-09-11T21:24:12.738Z,100503.06
2022-09-11T21:27:14.455Z,100500.88
2022-09-11T21:30:16.241Z,100500.31
2022-09-11T21:33:18.391Z,100498.97
2022-09-11T21:36:20.110Z,100505.00
2022-09-11T21:39:23.129Z,100503.72
2022-09-11T21:42:24.798Z,100502.13
2022-09-11T21:45:26.435Z,100502.56
2022-09-11T21:48:31.252Z,100501.88
2022-09-11T21:51:35.337Z,100493.00
2022-09-11T21:54:39.085Z,100496.22
2022-09-11T21:57:40.716Z,100504.75
2022-09-11T22:00:43.392Z,100494.41
2022-09-11T22:03:45.789Z,100488.31
2022-09-11T22:06:47.529Z,100496.16
2022-09-11T22:09:51.555Z,100503.13
2022-09-11T22:12:53.519Z,100490.81
2022-09-11T22:15:55.277Z,100497.16
2022-09-11T22:18:57.129Z,100495.69
2022-09-11T22:21:58.756Z,100497.41
2022-09-11T22:25:01.697Z,100492.16
2022-09-11T22:28:04.086Z,100492.59
2022-09-11T22:31:10.624Z,100485.13
2022-09-11T22:34:12.353Z,100490.97
2022-09-11T22:37:13.959Z,100481.50
2022-09-11T22:40:17.181Z,100490.84
2022-09-11T22:43:18.957Z,100481.84
2022-09-11T22:46:21.201Z,100475.16
2022-09-11T22:49:22.962Z,100477.13
2022-09-11T22:52:24.687Z,100480.44
2022-09-11T22:55:27.685Z,100487.81
2022-09-11T22:58:30.606Z,100477.31
2022-09-11T23:01:32.336Z,100479.03
2022-09-11T23:04:34.015Z,100480.22
2022-09-11T23:07:35.645Z,100477.22
2022-09-11T23:10:41.660Z,100479.69
2022-09-11T23:13:43.950Z,100480.41
2022-09-11T23:16:45.582Z,100487.16
2022-09-11T23:19:47.975Z,100476.38
2022-09-11T23:22:49.759Z,100475.47
2022-09-11T23:25:52.747Z,100477.25
2022-09-11T23:28:55.462Z,100478.28
2022-09-11T23:31:57.531Z,100475.13
2022-09-11T23:34:59.344Z,100485.81
2022-09-11T23:38:00.986Z,100479.94
2022-09-11T23:41:04.383Z,100479.56
2022-09-11T23:44:06.203Z,100468.53
2022-09-11T23:47:08.548Z,100472.28
2022-09-11T23:50:10.627Z,100470.34
2022-09-11T23:53:12.378Z,100467.91
2022-09-11T23:56:15.435Z,100467.59
2022-09-11T23:59:17.097Z,100460.75
